createdAt,value
2022-11-15T00:00:43.526Z,3.40
2022-11-15T00:03:29.408Z,5.13
2022-11-15T00:06:14.944Z,3.75
2022-11-15T00:09:01.721Z,9.13
2022-11-15T00:11:46.920Z,5.05
2022-11-15T00:14:32.306Z,4.60
2022-11-15T00:17:17.865Z,4.30
2022-11-15T00:20:03.792Z,3.72
2022-11-15T00:22:49.290Z,4.78
2022-11-15T00:25:35.117Z,3.95
2022-11-15T00:28:20.190Z,4.95
2022-11-15T00:31:07.779Z,7.03
2022-11-15T00:33:53.094Z,4.50
2022-11-15T00:36:38.474Z,3.75
2022-11-15T00:39:26.403Z,3.88
2022-11-15T00:42:11.908Z,3.53
2022-11-15T00:44:57.445Z,4.57
2022-11-15T00:47:46.435Z,3.78
2022-11-15T00:50:31.577Z,3.75
2022-11-15T00:53:18.125Z,4.22
2022-11-15T00:56:03.817Z,3.08
2022-11-15T00:58:49.231Z,4.30
2022-11-15T01:01:34.736Z,3.95
2022-11-15T01:04:20.238Z,4.10
2022-11-15T01:07:05.771Z,4.72
2022-11-15T01:09:51.252Z,6.32
2022-11-15T01:12:36.546Z,3.95
2022-11-15T01:15:22.020Z,2.75
2022-11-15T01:18:07.407Z,2.80
2022-11-15T01:20:52.960Z,3.00
2022-11-15T01:23:39.233Z,4.60
2022-11-15T01:26:25.702Z,3.13
2022-11-15T01:29:10.907Z,4.00
2022-11-15T01:32:01.675Z,5.00
2022-11-15T01:34:47.073Z,4.45
2022-11-15T01:37:32.600Z,4.30
2022-11-15T01:40:18.184Z,3.72
2022-11-15T01:43:21.619Z,3.20
2022-11-15T01:46:20.424Z,8.82
2022-11-15T01:49:20.587Z,6.32
2022-11-15T01:52:10.253Z,4.15
2022-11-15T01:55:23.796Z,3.00
2022-11-15T01:58:09.031Z,3.72
2022-11-15T02:00:54.683Z,4.22
2022-11-15T02:03:58.248Z,2.75
2022-11-15T02:06:44.950Z,2.90
2022-11-15T02:09:31.271Z,4.10
2022-11-15T02:12:20.500Z,3.97
2022-11-15T02:15:07.246Z,3.33
2022-11-15T02:18:00.352Z,3.55
2022-11-15T02:21:14.738Z,4.65
2022-11-15T02:24:48.051Z,5.05
2022-11-15T02:27:47.805Z,5.80
2022-11-15T02:30:45.700Z,3.05
2022-11-15T02:33:56.187Z,4.10
2022-11-15T02:37:07.955Z,3.53
2022-11-15T02:40:07.122Z,3.95
2022-11-15T02:43:19.775Z,4.45
2022-11-15T02:46:11.818Z,3.65
2022-11-15T02:48:57.529Z,2.53
2022-11-15T02:51:45.516Z,3.33
2022-11-15T02:54:33.226Z,2.83
2022-11-15T02:57:24.365Z,2.65
2022-11-15T03:00:17.992Z,5.15
2022-11-15T03:03:17.719Z,4.55
2022-11-15T03:06:21.092Z,2.80
2022-11-15T03:09:43.531Z,2.88
2022-11-15T03:15:30.593Z,3.33
2022-11-15T03:18:22.413Z,4.30
2022-11-15T03:21:10.440Z,2.42
2022-11-15T03:23:57.996Z,3.58
2022-11-15T03:26:47.847Z,4.38
2022-11-15T03:29:47.669Z,3.25
2022-11-15T03:32:38.489Z,3.63
2022-11-15T03:35:31.157Z,2.55
2022-11-15T03:38:26.020Z,2.38
2022-11-15T03:41:28.624Z,2.17
2022-11-15T03:44:22.777Z,2.88
2022-11-15T03:47:18.355Z,3.13
2022-11-15T03:51:59.690Z,1.75
2022-11-15T03:54:56.721Z,1.80
2022-11-15T03:57:42.087Z,4.18
2022-11-15T04:00:28.941Z,3.60
2022-11-15T04:03:13.993Z,3.10
2022-11-15T04:05:59.435Z,1.83
2022-11-15T04:08:44.940Z,2.28
2022-11-15T04:11:30.425Z,3.20
2022-11-15T04:14:15.858Z,4.15
2022-11-15T04:17:01.335Z,2.47
2022-11-15T04:20:05.211Z,2.78
2022-11-15T04:23:12.094Z,2.38
2022-11-15T04:26:00.938Z,1.40
2022-11-15T04:29:05.457Z,0.77
2022-11-15T04:31:50.850Z,1.90
2022-11-15T04:34:36.393Z,3.40
2022-11-15T04:37:21.507Z,3.50
2022-11-15T04:40:07.722Z,2.38
2022-11-15T04:42:53.147Z,2.47
2022-11-15T04:45:38.587Z,2.33
2022-11-15T04:48:24.105Z,1.90
2022-11-15T04:51:09.475Z,2.67
2022-11-15T04:53:54.952Z,3.05
2022-11-15T04:56:40.290Z,3.78
2022-11-15T04:59:25.782Z,2.20
2022-11-15T05:02:11.211Z,1.63
2022-11-15T05:04:56.673Z,1.95
2022-11-15T05:07:42.201Z,1.90
2022-11-15T05:10:27.646Z,2.38
2022-11-15T05:13:12.996Z,0.82
2022-11-15T05:15:58.406Z,2.15
2022-11-15T05:18:50.164Z,0.80
2022-11-15T05:21:36.303Z,1.40
2022-11-15T05:24:21.355Z,1.10
2022-11-15T05:27:06.742Z,4.03
2022-11-15T05:29:52.051Z,4.28
2022-11-15T05:32:37.690Z,5.30
2022-11-15T05:35:40.644Z,2.70
2022-11-15T05:38:26.695Z,2.20
2022-11-15T05:41:12.768Z,3.10
2022-11-15T05:44:01.370Z,2.83
2022-11-15T05:46:47.978Z,2.22
2022-11-15T05:49:36.494Z,5.40
2022-11-15T05:52:26.357Z,5.43
2022-11-15T05:55:11.783Z,7.47
2022-11-15T05:57:57.368Z,4.63
2022-11-15T06:00:44.164Z,5.15
2022-11-15T06:03:30.360Z,4.22
2022-11-15T06:06:16.600Z,3.00
2022-11-15T06:09:02.236Z,2.42
2022-11-15T06:11:53.062Z,3.78
2022-11-15T06:14:38.619Z,3.55
2022-11-15T06:17:23.950Z,2.17
2022-11-15T06:20:09.986Z,1.38
2022-11-15T06:23:04.432Z,40.88
2022-11-15T06:25:49.980Z,19.38
2022-11-15T06:28:35.632Z,31.88
2022-11-15T06:31:20.919Z,17.48
2022-11-15T06:34:06.262Z,22.15
2022-11-15T06:36:51.666Z,19.17
2022-11-15T06:39:37.150Z,17.20
2022-11-15T06:42:22.617Z,11.48
2022-11-15T06:45:08.561Z,9.55
2022-11-15T06:47:54.335Z,6.60
2022-11-15T06:50:39.504Z,6.25
2022-11-15T06:53:25.469Z,5.88
2022-11-15T06:56:10.993Z,7.68
2022-11-15T06:58:56.678Z,5.50
2022-11-15T07:01:41.946Z,4.85
2022-11-15T07:04:27.402Z,7.85
2022-11-15T07:07:15.073Z,12.38
2022-11-15T07:10:00.448Z,13.77
2022-11-15T07:12:49.503Z,10.45
2022-11-15T07:15:34.991Z,8.10
2022-11-15T07:18:20.643Z,7.47
2022-11-15T07:21:07.591Z,7.28
2022-11-15T07:23:53.004Z,5.07
2022-11-15T07:26:38.402Z,6.78
2022-11-15T07:29:23.693Z,5.32
2022-11-15T07:32:10.337Z,6.13
2022-11-15T07:34:55.690Z,7.82
2022-11-15T07:37:41.110Z,6.85
2022-11-15T07:40:28.230Z,10.38
2022-11-15T07:43:13.588Z,9.05
2022-11-15T07:45:59.711Z,7.80
2022-11-15T07:48:45.767Z,7.63
2022-11-15T07:51:31.274Z,5.88
2022-11-15T07:54:16.764Z,6.40
2022-11-15T07:57:06.907Z,7.88
2022-11-15T07:59:52.495Z,6.07
2022-11-15T08:02:38.197Z,16.58
2022-11-15T08:05:23.524Z,19.83
2022-11-15T08:08:10.838Z,17.55
2022-11-15T08:10:58.024Z,21.33
2022-11-15T08:13:43.367Z,21.92
2022-11-15T08:16:28.882Z,19.92
2022-11-15T08:19:14.291Z,23.85
2022-11-15T08:21:59.627Z,24.58
2022-11-15T08:24:45.569Z,25.77
2022-11-15T08:27:30.886Z,21.52
2022-11-15T08:30:16.985Z,19.85
2022-11-15T08:33:02.384Z,21.92
2022-11-15T08:35:47.845Z,23.60
2022-11-15T08:38:33.660Z,20.48
2022-11-15T08:41:32.203Z,19.23
2022-11-15T08:44:17.399Z,12.88
2022-11-15T08:47:02.717Z,11.95
2022-11-15T08:49:48.095Z,11.32
2022-11-15T08:52:34.351Z,10.68
2022-11-15T08:55:20.911Z,10.25
2022-11-15T08:58:09.990Z,8.60
2022-11-15T09:00:56.878Z,7.70
2022-11-15T09:03:42.373Z,8.13
2022-11-15T09:06:28.193Z,4.22
2022-11-15T09:09:13.820Z,4.20
2022-11-15T09:12:02.433Z,6.60
2022-11-15T09:14:47.912Z,5.00
2022-11-15T09:17:33.295Z,5.30
2022-11-15T09:20:18.744Z,3.58
2022-11-15T09:23:05.777Z,4.03
2022-11-15T09:25:50.933Z,5.20
2022-11-15T09:28:37.777Z,3.95
2022-11-15T09:31:23.429Z,4.75
2022-11-15T09:34:08.797Z,5.10
2022-11-15T09:36:54.320Z,6.22
2022-11-15T09:39:39.655Z,7.35
2022-11-15T09:42:36.924Z,8.20
2022-11-15T09:45:29.600Z,4.57
2022-11-15T09:48:17.697Z,5.22
2022-11-15T09:51:19.809Z,9.95
2022-11-15T09:54:45.636Z,8.23
2022-11-15T09:56:44.725Z,6.15
2022-11-15T09:59:35.848Z,7.93
2022-11-15T10:02:26.888Z,10.27
2022-11-15T10:04:54.921Z,4.93
2022-11-15T10:07:32.318Z,2.75
2022-11-15T10:10:16.694Z,4.28
2022-11-15T10:12:48.977Z,7.18
2022-11-15T10:15:17.887Z,6.47
2022-11-15T10:18:00.347Z,8.70
2022-11-15T10:20:36.796Z,7.97
2022-11-15T10:23:11.164Z,6.50
2022-11-15T10:25:39.283Z,2.20
2022-11-15T10:28:18.191Z,7.13
2022-11-15T10:30:48.755Z,19.88
2022-11-15T10:33:35.877Z,19.00
2022-11-15T10:36:21.216Z,11.70
2022-11-15T10:38:50.951Z,18.35
2022-11-15T10:41:31.251Z,8.05
2022-11-15T10:44:21.636Z,10.88
2022-11-15T10:46:55.881Z,5.07
2022-11-15T10:49:25.137Z,3.50
2022-11-15T10:52:13.659Z,3.03
2022-11-15T10:54:45.014Z,1.83
2022-11-15T10:57:18.609Z,0.65
2022-11-15T10:59:53.249Z,0.82
2022-11-15T11:02:42.931Z,1.08
2022-11-15T11:05:37.867Z,0.50
2022-11-15T11:08:10.900Z,1.85
2022-11-15T11:11:01.461Z,1.95
2022-11-15T11:13:35.963Z,0.70
2022-11-15T11:16:14.770Z,0.65
2022-11-15T11:18:53.193Z,0.80
2022-11-15T11:21:56.160Z,0.52
2022-11-15T11:24:54.409Z,1.30
2022-11-15T11:27:44.664Z,1.20
2022-11-15T11:30:18.666Z,0.40
2022-11-15T11:32:55.000Z,1.70
2022-11-15T11:35:52.852Z,0.32
2022-11-15T11:38:39.165Z,0.57
2022-11-15T11:41:15.755Z,1.30
2022-11-15T11:44:08.007Z,0.40
2022-11-15T11:46:53.535Z,0.73
2022-11-15T11:49:31.012Z,0.32
2022-11-15T11:52:11.144Z,0.40
2022-11-15T11:55:07.088Z,1.02
2022-11-15T11:57:49.354Z,0.55
2022-11-15T12:00:20.865Z,1.08
2022-11-15T12:03:10.537Z,0.43
2022-11-15T12:05:50.917Z,0.73
2022-11-15T12:08:26.646Z,0.68
2022-11-15T12:11:14.658Z,2.33
2022-11-15T12:13:43.093Z,0.70
2022-11-15T12:16:33.208Z,1.15
2022-11-15T12:19:05.594Z,1.30
2022-11-15T12:22:03.268Z,0.85
2022-11-15T12:24:44.277Z,0.60
2022-11-15T12:27:20.643Z,2.40
2022-11-15T12:29:56.764Z,0.97
2022-11-15T12:32:32.015Z,0.70
2022-11-15T12:35:00.096Z,0.65
2022-11-15T12:37:34.098Z,0.93
2022-11-15T12:40:23.495Z,1.05
2022-11-15T12:43:22.068Z,0.80
2022-11-15T12:45:49.054Z,1.50
2022-11-15T12:48:18.762Z,0.65
2022-11-15T12:50:51.361Z,1.15
2022-11-15T12:53:24.342Z,0.85
2022-11-15T12:56:18.342Z,1.60
2022-11-15T12:58:54.771Z,1.02
2022-11-15T13:01:33.389Z,0.50
2022-11-15T13:04:22.205Z,0.90
2022-11-15T13:07:04.215Z,0.85
2022-11-15T13:09:36.982Z,0.82
2022-11-15T13:12:35.245Z,1.30
2022-11-15T13:15:14.068Z,0.90
2022-11-15T13:17:51.366Z,1.30
2022-11-15T13:20:24.513Z,1.30
2022-11-15T13:23:09.786Z,1.17
2022-11-15T13:26:00.000Z,0.73
2022-11-15T13:28:55.697Z,1.20
2022-11-15T13:31:38.137Z,2.40
2022-11-15T13:34:50.129Z,2.25
2022-11-15T13:37:31.828Z,2.08
2022-11-15T13:40:16.958Z,2.47
2022-11-15T13:42:45.887Z,1.80
2022-11-15T13:45:16.333Z,2.78
2022-11-15T13:47:43.352Z,2.58
2022-11-15T13:50:14.522Z,3.45
2022-11-15T13:52:46.558Z,2.88
2022-11-15T13:55:19.867Z,2.95
2022-11-15T13:57:52.166Z,1.70
2022-11-15T14:00:44.223Z,2.25
2022-11-15T14:03:21.168Z,2.13
2022-11-15T14:06:07.598Z,2.08
2022-11-15T14:08:36.257Z,2.20
2022-11-15T14:11:21.072Z,1.77
2022-11-15T14:14:14.492Z,2.47
2022-11-15T14:16:47.097Z,1.60
2022-11-15T14:19:35.968Z,1.48
2022-11-15T14:22:34.633Z,1.48
2022-11-15T14:25:08.924Z,1.58
2022-11-15T14:27:36.002Z,1.95
2022-11-15T14:30:03.103Z,4.85
2022-11-15T14:32:45.159Z,2.40
2022-11-15T14:35:25.267Z,19.50
2022-11-15T14:37:54.623Z,10.90
2022-11-15T14:40:23.174Z,5.57
2022-11-15T14:42:50.785Z,3.08
2022-11-15T14:45:22.746Z,1.88
2022-11-15T14:47:49.545Z,3.72
2022-11-15T14:50:20.946Z,2.40
2022-11-15T14:52:49.221Z,5.40
2022-11-15T14:55:32.024Z,3.88
2022-11-15T14:57:59.823Z,3.15
2022-11-15T15:00:30.889Z,3.45
2022-11-15T15:03:01.425Z,3.88
2022-11-15T15:05:44.471Z,2.65
2022-11-15T15:08:11.739Z,3.65
2022-11-15T15:10:44.220Z,3.17
2022-11-15T15:13:21.687Z,3.60
2022-11-15T15:15:49.788Z,4.13
2022-11-15T15:18:17.209Z,5.40
2022-11-15T15:20:46.573Z,4.65
2022-11-15T15:23:18.830Z,3.85
2022-11-15T15:25:47.039Z,3.78
2022-11-15T15:28:14.398Z,3.60
2022-11-15T15:30:41.772Z,3.95
2022-11-15T15:33:08.610Z,3.75
2022-11-15T15:35:36.218Z,2.13
2022-11-15T15:38:03.806Z,3.28
2022-11-15T15:40:32.579Z,3.95
2022-11-15T15:42:59.847Z,2.83
2022-11-15T15:45:27.870Z,2.50
2022-11-15T15:47:54.731Z,2.90
2022-11-15T15:50:28.802Z,4.82
2022-11-15T15:52:57.870Z,3.58
2022-11-15T15:55:25.309Z,3.38
2022-11-15T15:57:52.390Z,3.67
2022-11-15T16:00:20.528Z,3.40
2022-11-15T16:02:47.488Z,2.47
2022-11-15T16:05:14.653Z,2.58
2022-11-15T16:07:44.074Z,3.38
2022-11-15T16:10:25.709Z,4.68
2022-11-15T16:12:53.731Z,4.38
2022-11-15T16:15:21.894Z,2.83
2022-11-15T16:17:52.314Z,4.03
2022-11-15T16:20:43.247Z,3.30
2022-11-15T16:23:14.790Z,2.27
2022-11-15T16:25:51.455Z,3.33
2022-11-15T16:28:27.413Z,2.47
2022-11-15T16:31:23.468Z,3.55
2022-11-15T16:33:50.634Z,1.92
2022-11-15T16:36:26.905Z,2.63
2022-11-15T16:38:56.474Z,2.65
2022-11-15T16:41:23.175Z,2.00
2022-11-15T16:43:50.069Z,3.35
2022-11-15T16:46:21.952Z,2.28
2022-11-15T16:48:49.582Z,3.08
2022-11-15T16:51:16.486Z,3.58
2022-11-15T16:53:43.812Z,4.07
2022-11-15T16:56:27.197Z,4.32
2022-11-15T16:58:55.366Z,3.70
2022-11-15T17:01:30.861Z,4.05
2022-11-15T17:03:57.981Z,2.67
2022-11-15T17:06:26.727Z,4.10
2022-11-15T17:08:54.363Z,4.63
2022-11-15T17:11:22.705Z,5.65
2022-11-15T17:13:49.666Z,7.22
2022-11-15T17:16:18.134Z,4.00
2022-11-15T17:18:45.681Z,3.80
2022-11-15T17:21:17.802Z,3.25
2022-11-15T17:23:45.432Z,3.80
2022-11-15T17:26:33.089Z,3.00
2022-11-15T17:29:04.484Z,3.35
2022-11-15T17:31:33.680Z,2.75
2022-11-15T17:34:04.661Z,5.22
2022-11-15T17:36:31.737Z,2.45
2022-11-15T17:38:59.923Z,3.85
2022-11-15T17:41:27.880Z,2.78
2022-11-15T17:43:57.895Z,3.83
2022-11-15T17:46:25.320Z,2.97
2022-11-15T17:48:52.109Z,3.38
2022-11-15T17:51:19.406Z,2.60
2022-11-15T17:53:48.430Z,3.63
2022-11-15T17:56:20.747Z,3.00
2022-11-15T17:59:11.228Z,3.50
2022-11-15T18:01:39.974Z,3.17
2022-11-15T18:04:09.133Z,4.00
2022-11-15T18:06:36.727Z,3.50
2022-11-15T18:09:04.824Z,3.88
2022-11-15T18:11:34.315Z,5.82
2022-11-15T18:14:03.477Z,6.70
2022-11-15T18:16:32.613Z,7.55
2022-11-15T18:18:59.732Z,6.38
2022-11-15T18:21:29.660Z,4.35
2022-11-15T18:24:00.449Z,4.35
2022-11-15T18:26:29.343Z,5.10
2022-11-15T18:29:02.132Z,3.25
2022-11-15T18:31:31.043Z,4.13
2022-11-15T18:34:01.119Z,3.53
2022-11-15T18:36:30.684Z,5.53
2022-11-15T18:38:59.899Z,5.70
2022-11-15T18:41:30.837Z,5.53
2022-11-15T18:44:04.299Z,3.92
2022-11-15T18:46:32.426Z,4.05
2022-11-15T18:49:01.395Z,4.28
2022-11-15T18:51:30.732Z,4.20
2022-11-15T18:54:00.350Z,5.32
2022-11-15T18:56:28.327Z,3.35
2022-11-15T18:58:57.999Z,4.93
2022-11-15T19:01:34.507Z,4.82
2022-11-15T19:04:07.872Z,9.45
2022-11-15T19:06:38.736Z,5.20
2022-11-15T19:09:07.224Z,6.20
2022-11-15T19:11:36.120Z,6.72
2022-11-15T19:14:04.183Z,5.28
2022-11-15T19:16:33.376Z,5.88
2022-11-15T19:19:06.373Z,7.03
2022-11-15T19:21:34.218Z,5.22
2022-11-15T19:24:01.561Z,5.25
2022-11-15T19:26:29.311Z,4.53
2022-11-15T19:28:59.340Z,5.90
2022-11-15T19:31:28.015Z,4.60
2022-11-15T19:33:55.819Z,5.03
2022-11-15T19:36:33.892Z,3.05
2022-11-15T19:39:05.522Z,3.10
2022-11-15T19:43:59.056Z,3.38
2022-11-15T19:46:26.953Z,5.10
2022-11-15T19:48:54.331Z,6.13
2022-11-15T19:51:23.793Z,2.72
2022-11-15T19:53:54.155Z,3.85
2022-11-15T19:56:21.814Z,4.55
2022-11-15T19:58:56.040Z,3.65
2022-11-15T20:01:25.315Z,5.07
2022-11-15T20:03:57.783Z,3.38
2022-11-15T20:06:27.616Z,3.50
2022-11-15T20:08:54.767Z,3.22
2022-11-15T20:11:21.556Z,2.83
2022-11-15T20:13:48.459Z,3.60
2022-11-15T20:16:20.691Z,4.30
2022-11-15T20:18:51.585Z,3.15
2022-11-15T20:21:19.615Z,4.82
2022-11-15T20:23:47.743Z,3.67
2022-11-15T20:26:15.198Z,3.38
2022-11-15T20:28:42.130Z,4.10
2022-11-15T20:31:10.384Z,4.97
2022-11-15T20:33:37.314Z,3.55
2022-11-15T20:36:12.630Z,4.07
2022-11-15T20:38:39.633Z,4.82
2022-11-15T20:41:06.451Z,9.40
2022-11-15T20:43:33.379Z,3.72
2022-11-15T20:46:00.192Z,2.50
2022-11-15T20:48:27.243Z,2.92
2022-11-15T20:51:14.238Z,4.68
2022-11-15T20:53:42.935Z,3.35
2022-11-15T20:56:15.421Z,3.30
2022-11-15T20:58:43.360Z,3.13
2022-11-15T21:01:12.166Z,2.92
2022-11-15T21:03:39.019Z,3.58
2022-11-15T21:06:06.218Z,4.00
2022-11-15T21:08:53.394Z,4.45
2022-11-15T21:11:39.404Z,5.90
2022-11-15T21:14:09.641Z,5.78
2022-11-15T21:16:37.044Z,4.13
2022-11-15T21:19:03.807Z,6.20
2022-11-15T21:21:32.938Z,6.32
2022-11-15T21:23:59.620Z,4.35
2022-11-15T21:26:26.816Z,4.50
2022-11-15T21:28:53.507Z,5.28
2022-11-15T21:31:20.359Z,8.30
2022-11-15T21:33:47.022Z,4.13
2022-11-15T21:36:13.828Z,6.50
2022-11-15T21:38:40.742Z,6.00
2022-11-15T21:41:07.559Z,6.93
2022-11-15T21:43:34.333Z,6.43
2022-11-15T21:46:06.206Z,7.63
2022-11-15T21:48:35.186Z,6.60
2022-11-15T21:51:04.711Z,6.00
2022-11-15T21:53:32.118Z,5.38
2022-11-15T21:56:00.163Z,6.15
2022-11-15T21:58:27.797Z,8.90
2022-11-15T22:01:14.275Z,7.65
2022-11-15T22:03:42.085Z,7.90
2022-11-15T22:06:12.964Z,8.07
2022-11-15T22:08:43.297Z,11.90
2022-11-15T22:11:10.148Z,13.95
2022-11-15T22:13:37.085Z,20.55
2022-11-15T22:16:04.209Z,11.27
2022-11-15T22:18:31.126Z,8.60
2022-11-15T22:20:59.816Z,10.55
2022-11-15T22:23:28.789Z,5.82
2022-11-15T22:25:55.504Z,4.85
2022-11-15T22:28:23.105Z,3.90
2022-11-15T22:30:53.168Z,3.85
2022-11-15T22:33:22.415Z,4.75
2022-11-15T22:35:49.502Z,5.63
2022-11-15T22:38:16.450Z,4.88
2022-11-15T22:40:44.149Z,4.90
2022-11-15T22:43:13.357Z,3.85
2022-11-15T22:45:57.619Z,4.65
2022-11-15T22:48:30.549Z,5.32
2022-11-15T22:50:58.222Z,3.60
2022-11-15T22:53:25.898Z,3.85
2022-11-15T22:56:01.550Z,3.33
2022-11-15T22:58:29.938Z,2.40
2022-11-15T23:01:00.808Z,3.17
2022-11-15T23:03:28.570Z,2.55
2022-11-15T23:06:00.375Z,2.60
2022-11-15T23:08:27.110Z,1.67
2022-11-15T23:11:12.319Z,2.25
2022-11-15T23:13:39.038Z,4.53
2022-11-15T23:16:23.967Z,3.13
2022-11-15T23:18:58.886Z,2.40
2022-11-15T23:21:47.072Z,1.30
2022-11-15T23:24:14.934Z,3.40
2022-11-15T23:26:42.730Z,3.00
2022-11-15T23:29:11.669Z,1.52
2022-11-15T23:32:02.052Z,1.10
2022-11-15T23:34:31.093Z,1.95
2022-11-15T23:36:58.438Z,5.13
2022-11-15T23:39:25.210Z,1.23
2022-11-15T23:41:52.030Z,2.90
2022-11-15T23:44:18.758Z,3.38
2022-11-15T23:46:45.770Z,4.15
2022-11-15T23:49:12.578Z,2.28
2022-11-15T23:51:39.302Z,2.00
2022-11-15T23:54:06.875Z,1.52
2022-11-15T23:56:33.625Z,2.25
2022-11-15T23:59:00.577Z,4.00
